createdAt,value
2023-10-07T00:00:00.458Z,198.5
2023-10-07T00:05:00.656Z,196.0
2023-10-07T00:10:00.790Z,189.3
2023-10-07T00:15:01.386Z,190.5
2023-10-07T00:20:00.666Z,192.6
2023-10-07T00:25:00.477Z,191.2
2023-10-07T00:30:00.664Z,192.7
2023-10-07T00:35:00.770Z,210.5
2023-10-07T00:40:00.553Z,205.3
2023-10-07T00:45:00.469Z,210.8
2023-10-07T00:50:00.703Z,190.6
2023-10-07T00:55:00.435Z,223.3
2023-10-07T01:00:00.504Z,203.3
2023-10-07T01:05:00.895Z,190.9
2023-10-07T01:10:00.526Z,197.2
2023-10-07T01:15:00.461Z,195.9
2023-10-07T01:20:01.010Z,194.7
2023-10-07T01:25:00.396Z,182.7
2023-10-07T01:30:00.429Z,199.6
2023-10-07T01:35:00.602Z,202.4
2023-10-07T01:40:00.447Z,193.5
2023-10-07T01:45:00.421Z,207.0
2023-10-07T01:50:00.673Z,213.6
2023-10-07T01:55:00.635Z,196.5
2023-10-07T02:00:00.429Z,187.3
2023-10-07T02:05:00.996Z,192.5
2023-10-07T02:10:00.421Z,217.4
2023-10-07T02:15:00.447Z,194.9
2023-10-07T02:20:00.658Z,189.7
2023-10-07T02:25:00.471Z,185.5
2023-10-07T02:30:00.439Z,227.4
2023-10-07T02:35:00.687Z,200.2
2023-10-07T02:40:00.437Z,203.4
2023-10-07T02:45:00.491Z,197.0
2023-10-07T02:50:00.657Z,202.1
2023-10-07T02:55:00.441Z,211.7
2023-10-07T03:00:00.428Z,203.1
2023-10-07T03:05:00.856Z,198.7
2023-10-07T03:10:00.429Z,210.1
2023-10-07T03:15:03.406Z,190.6
2023-10-07T03:20:00.581Z,211.4
2023-10-07T03:25:00.486Z,193.6
2023-10-07T03:30:00.480Z,185.9
2023-10-07T03:35:00.674Z,201.9
2023-10-07T03:40:00.498Z,219.5
2023-10-07T03:45:00.401Z,211.0
2023-10-07T03:50:01.174Z,213.3
2023-10-07T03:55:00.446Z,216.5
2023-10-07T04:00:00.461Z,220.3
2023-10-07T04:05:00.681Z,190.9
2023-10-07T04:10:00.394Z,226.8
2023-10-07T04:15:00.422Z,205.7
2023-10-07T04:20:00.642Z,216.4
2023-10-07T04:25:00.477Z,219.7
2023-10-07T04:30:01.117Z,198.1
2023-10-07T04:35:00.775Z,196.5
2023-10-07T04:40:00.557Z,211.7
2023-10-07T04:45:00.485Z,196.1
2023-10-07T04:50:00.668Z,196.0
2023-10-07T04:55:00.515Z,218.8
2023-10-07T05:00:00.461Z,188.1
2023-10-07T05:05:00.685Z,239.4
2023-10-07T05:10:00.438Z,216.4
2023-10-07T05:15:00.422Z,202.4
2023-10-07T05:20:00.707Z,200.6
2023-10-07T05:25:00.489Z,192.1
2023-10-07T05:30:00.476Z,212.7
2023-10-07T05:35:00.717Z,214.9
2023-10-07T05:40:00.625Z,200.1
2023-10-07T05:45:00.487Z,188.8
2023-10-07T05:50:00.932Z,212.8
2023-10-07T05:55:00.460Z,193.2
2023-10-07T06:00:00.474Z,216.7
2023-10-07T06:05:00.767Z,197.4
2023-10-07T06:10:00.563Z,228.1
2023-10-07T06:15:00.463Z,208.4
2023-10-07T06:20:00.840Z,236.1
2023-10-07T06:25:00.492Z,204.9
2023-10-07T06:30:00.467Z,215.7
2023-10-07T06:35:01.203Z,221.3
2023-10-07T06:40:00.523Z,210.9
2023-10-07T06:45:00.556Z,215.1
2023-10-07T06:50:00.838Z,228.8
2023-10-07T06:55:16.218Z,203.0
2023-10-07T07:00:00.472Z,193.3
2023-10-07T07:05:00.752Z,226.2
2023-10-07T07:10:00.430Z,236.5
2023-10-07T07:15:00.485Z,206.9
2023-10-07T07:20:00.722Z,226.1
2023-10-07T07:25:00.476Z,212.0
2023-10-07T07:30:00.433Z,244.3
2023-10-07T07:35:00.601Z,240.2
2023-10-07T07:40:00.435Z,210.1
2023-10-07T07:45:00.657Z,220.6
2023-10-07T07:50:00.730Z,197.9
2023-10-07T07:55:00.428Z,207.6
2023-10-07T08:00:00.493Z,232.2
2023-10-07T08:05:00.786Z,220.0
2023-10-07T08:10:00.547Z,212.1
2023-10-07T08:15:01.142Z,218.2
2023-10-07T08:20:00.657Z,203.9
2023-10-07T08:25:00.517Z,225.6
2023-10-07T08:30:00.429Z,222.4
2023-10-07T08:35:01.163Z,205.1
2023-10-07T08:40:00.512Z,194.8
2023-10-07T08:45:00.553Z,200.1
2023-10-07T08:50:01.690Z,197.0
2023-10-07T08:55:00.453Z,197.2
2023-10-07T09:00:00.467Z,189.7
2023-10-07T09:05:01.097Z,187.4
2023-10-07T09:10:00.551Z,192.4
2023-10-07T09:15:00.497Z,209.4
2023-10-07T09:20:00.955Z,184.9
2023-10-07T09:25:00.431Z,192.4
2023-10-07T09:30:00.486Z,202.7
2023-10-07T09:35:00.665Z,190.5
2023-10-07T09:40:00.415Z,193.3
2023-10-07T09:45:00.485Z,229.7
2023-10-07T09:50:00.998Z,204.8
2023-10-07T09:55:00.476Z,202.0
2023-10-07T10:00:00.498Z,188.2
2023-10-07T10:05:00.691Z,212.7
2023-10-07T10:10:00.425Z,221.0
2023-10-07T10:15:00.434Z,197.4
2023-10-07T10:20:00.635Z,193.7
2023-10-07T10:25:00.456Z,233.3
2023-10-07T10:30:00.427Z,223.8
2023-10-07T10:35:00.896Z,222.2
2023-10-07T10:40:00.431Z,216.9
2023-10-07T10:45:00.482Z,230.1
2023-10-07T10:50:00.653Z,232.9
2023-10-07T10:55:00.654Z,217.3
2023-10-07T11:00:00.504Z,194.1
2023-10-07T11:05:00.889Z,195.4
2023-10-07T11:10:00.454Z,192.9
2023-10-07T11:15:00.424Z,209.9
2023-10-07T11:20:00.601Z,208.8
2023-10-07T11:25:01.136Z,212.8
2023-10-07T11:30:00.465Z,221.5
2023-10-07T11:35:01.465Z,217.4
2023-10-07T11:40:00.478Z,222.3
2023-10-07T11:45:00.494Z,205.6
2023-10-07T11:50:00.726Z,206.2
2023-10-07T11:55:00.431Z,200.9
2023-10-07T12:00:00.434Z,194.7
2023-10-07T12:05:00.746Z,193.9
2023-10-07T12:10:00.519Z,191.1
2023-10-07T12:15:00.504Z,200.4
2023-10-07T12:20:00.905Z,192.4
2023-10-07T12:25:00.646Z,221.2
2023-10-07T12:30:00.458Z,202.2
2023-10-07T12:35:00.610Z,227.6
2023-10-07T12:40:00.419Z,202.7
2023-10-07T12:45:00.438Z,234.3
2023-10-07T12:50:00.689Z,214.5
2023-10-07T12:55:00.451Z,213.4
2023-10-07T13:00:00.450Z,221.1
2023-10-07T13:05:00.640Z,221.4
2023-10-07T13:20:00.643Z,231.8
2023-10-07T13:25:00.418Z,235.1
2023-10-07T13:30:00.453Z,234.1
2023-10-07T13:35:01.121Z,229.4
2023-10-07T13:40:00.460Z,227.6
2023-10-07T13:45:00.349Z,248.9
2023-10-07T13:50:00.554Z,253.0
2023-10-07T13:55:00.490Z,259.0
2023-10-07T14:00:00.459Z,283.2
2023-10-07T14:05:00.697Z,330.1
2023-10-07T14:10:00.454Z,356.5
2023-10-07T14:15:00.388Z,330.5
2023-10-07T14:20:00.785Z,329.2
2023-10-07T14:25:00.375Z,330.7
2023-10-07T14:30:00.745Z,348.6
2023-10-07T14:35:00.585Z,266.3
2023-10-07T14:40:00.474Z,336.0
2023-10-07T14:45:00.399Z,284.9
2023-10-07T14:50:00.651Z,288.6
2023-10-07T14:55:00.354Z,304.8
2023-10-07T15:00:00.506Z,282.1
2023-10-07T15:05:00.633Z,291.5
2023-10-07T15:10:00.471Z,307.0
2023-10-07T15:15:00.477Z,278.7
2023-10-07T15:20:00.715Z,313.9
2023-10-07T15:25:00.536Z,315.1
2023-10-07T15:30:00.456Z,287.9
2023-10-07T15:35:01.156Z,272.2
2023-10-07T15:40:00.461Z,293.6
2023-10-07T15:45:00.438Z,314.9
2023-10-07T15:50:00.705Z,296.9
2023-10-07T15:55:00.436Z,271.6
2023-10-07T16:00:00.499Z,234.6
2023-10-07T16:05:00.713Z,277.8
2023-10-07T16:10:00.499Z,269.8
2023-10-07T16:15:00.396Z,275.6
2023-10-07T16:20:01.040Z,335.6
2023-10-07T16:25:00.372Z,318.5
2023-10-07T16:30:00.479Z,315.1
2023-10-07T16:35:00.591Z,305.0
2023-10-07T16:40:00.512Z,316.0
2023-10-07T16:45:00.415Z,317.4
2023-10-07T16:50:00.993Z,348.3
2023-10-07T16:55:00.403Z,315.8
2023-10-07T17:00:00.504Z,315.0
2023-10-07T17:05:00.586Z,322.1
2023-10-07T17:10:00.469Z,321.0
2023-10-07T17:15:00.434Z,338.6
2023-10-07T17:20:00.731Z,20.2
2023-10-07T17:25:00.394Z,15.1
2023-10-07T17:30:00.458Z,19.7
2023-10-07T17:35:00.500Z,37.2
2023-10-07T17:40:00.518Z,19.1
2023-10-07T17:45:00.397Z,20.1
2023-10-07T17:50:00.665Z,357.2
2023-10-07T17:55:00.348Z,10.7
2023-10-07T18:00:00.484Z,43.3
2023-10-07T18:05:00.538Z,36.8
2023-10-07T18:10:00.494Z,23.8
2023-10-07T18:15:00.369Z,7.0
2023-10-07T18:20:00.674Z,9.1
2023-10-07T18:25:00.381Z,337.8
2023-10-07T18:30:00.490Z,348.1
2023-10-07T18:35:00.506Z,320.9
2023-10-07T18:40:00.446Z,5.2
2023-10-07T18:45:00.736Z,26.8
2023-10-07T18:50:00.806Z,28.7
2023-10-07T18:55:00.328Z,33.5
2023-10-07T19:00:00.494Z,27.9
2023-10-07T19:05:00.596Z,41.4
2023-10-07T19:10:00.431Z,48.5
2023-10-07T19:15:00.403Z,44.8
2023-10-07T19:20:00.801Z,26.6
2023-10-07T19:25:00.447Z,43.5
2023-10-07T19:30:02.550Z,34.4
2023-10-07T19:35:00.646Z,35.7
2023-10-07T19:40:00.472Z,13.8
2023-10-07T19:45:00.416Z,40.9
2023-10-07T19:50:00.702Z,31.4
2023-10-07T19:55:00.439Z,20.9
2023-10-07T20:00:00.436Z,33.7
2023-10-07T20:05:00.559Z,21.1
2023-10-07T20:10:00.450Z,27.1
2023-10-07T20:15:00.485Z,16.6
2023-10-07T20:20:00.883Z,23.7
2023-10-07T20:25:00.407Z,12.3
2023-10-07T20:30:00.442Z,11.7
2023-10-07T20:35:00.666Z,4.8
2023-10-07T20:40:00.476Z,8.6
2023-10-07T20:45:00.485Z,18.5
2023-10-07T20:50:00.661Z,8.2
2023-10-07T20:55:01.099Z,2.4
2023-10-07T21:00:00.491Z,10.8
2023-10-07T21:05:00.417Z,14.5
2023-10-07T21:10:01.048Z,1.0
2023-10-07T21:15:00.416Z,31.0
2023-10-07T21:20:00.473Z,2.4
2023-10-07T21:25:05.424Z,10.9
2023-10-07T21:30:00.477Z,27.8
2023-10-07T21:35:00.378Z,12.3
2023-10-07T21:40:00.517Z,23.0
2023-10-07T21:45:00.420Z,41.8
2023-10-07T21:50:00.469Z,0.0
2023-10-07T21:55:00.431Z,22.4
2023-10-07T22:00:00.482Z,22.5
2023-10-07T22:05:00.364Z,22.5
2023-10-07T22:10:00.475Z,273.6
2023-10-07T22:15:00.395Z,295.3
2023-10-07T22:20:00.523Z,312.1
2023-10-07T22:25:00.378Z,306.9
2023-10-07T22:30:00.448Z,304.4
2023-10-07T22:35:00.361Z,301.4
2023-10-07T22:40:00.500Z,280.2
2023-10-07T22:45:00.421Z,238.9
2023-10-07T22:50:00.468Z,215.8
2023-10-07T22:55:00.399Z,236.1
2023-10-07T23:00:00.475Z,212.3
2023-10-07T23:05:00.485Z,232.0
2023-10-07T23:10:01.381Z,236.5
2023-10-07T23:15:00.905Z,244.7
2023-10-07T23:20:00.469Z,233.6
2023-10-07T23:25:00.377Z,263.0
2023-10-07T23:30:00.452Z,241.8
2023-10-07T23:35:00.374Z,271.4
2023-10-07T23:40:00.460Z,267.7
2023-10-07T23:45:00.343Z,276.4
2023-10-07T23:50:00.432Z,302.8
2023-10-07T23:55:00.526Z,293.8
